Time;durP1;ratioP1;P1;durP2;ratioP2;P2;SDS_P1;SDS_P2;PMS_P1;PMS_P2;Temp;Humidity;BMP_temperature;BMP_pressure;BME280_temperature;BME280_humidity;BME280_pressure;Samples;Min_cycle;Max_cycle;Signal;HPM_P1;HPM_P2
2023/06/14 00:03:21;;;;;;;11.88;2.63;;;;;;;21.35;84.08;99253.06;10330035;28;20042;-75
2023/06/14 00:08:24;;;;;;;9.80;2.50;;;;;;;21.65;84.60;99302.91;10328794;28;20463;-75
2023/06/14 00:13:25;;;;;;;6.85;3.03;;;;;;;21.51;85.10;99310.72;10328595;28;20042;-75
2023/06/14 00:18:29;;;;;;;5.57;3.35;;;;;;;21.36;86.17;99308.78;10329192;28;20049;-75
2023/06/14 00:23:30;;;;;;;9.57;3.47;;;;;;;21.46;87.17;99340.41;10344736;28;20458;-75
2023/06/14 00:28:31;;;;;;;8.77;3.13;;;;;;;20.94;87.49;99246.72;10430048;28;20057;-75
2023/06/14 00:33:32;;;;;;;8.65;3.08;;;;;;;21.45;87.92;99351.47;10367740;28;20034;-74
2023/06/14 00:38:33;;;;;;;7.20;2.97;;;;;;;21.24;88.41;99320.81;10369050;28;20049;-74
2023/06/14 00:43:34;;;;;;;6.22;3.00;;;;;;;21.26;88.95;99345.69;10368563;28;20045;-74
2023/06/14 01:03:35;;;;;;;6.43;2.95;;;;;;;21.26;90.90;99337.56;10468734;28;20506;-71
2023/06/14 01:08:57;;;;;;;8.45;3.17;;;;;;;21.28;90.77;99355.16;10441456;28;20101;-70
2023/06/14 01:14:02;;;;;;;8.10;2.80;;;;;;;20.82;89.97;99295.50;10424085;28;20113;-70
2023/06/14 01:19:05;;;;;;;12.85;2.85;;;;;;;20.67;89.23;99290.81;10434901;28;20094;-71
2023/06/14 01:24:05;;;;;;;6.40;2.53;;;;;;;20.87;89.49;99348.69;10440567;28;20041;-71
2023/06/14 01:29:07;;;;;;;9.38;3.00;;;;;;;20.86;89.46;99350.59;10441164;28;20496;-71
2023/06/14 01:34:08;;;;;;;6.53;2.90;;;;;;;20.86;89.38;99363.28;10439527;28;20048;-70
2023/06/14 01:39:13;;;;;;;23.63;2.58;;;;;;;20.85;90.21;99384.06;10439919;28;20041;-71
2023/06/14 01:44:15;;;;;;;15.30;3.50;;;;;;;20.73;89.90;99391.50;10440460;28;20045;-71
2023/06/14 01:49:16;;;;;;;9.55;2.72;;;;;;;20.35;90.16;99357.44;10439486;28;20128;-71
2023/06/14 01:54:17;;;;;;;14.95;3.05;;;;;;;20.62;90.60;99389.81;10439428;28;20124;-71
2023/06/14 01:59:17;;;;;;;5.25;2.38;;;;;;;20.78;90.78;99394.25;10439762;28;20070;-71
2023/06/14 02:04:18;;;;;;;20.55;3.13;;;;;;;20.16;90.48;99300.34;10413781;28;20453;-71
2023/06/14 02:09:19;;;;;;;31.13;4.32;;;;;;;20.65;90.70;99367.72;10411381;28;20046;-72
2023/06/14 02:14:20;;;;;;;17.75;3.65;;;;;;;20.54;90.44;99323.63;10411957;28;20102;-70
2023/06/14 02:19:21;;;;;;;13.43;3.05;;;;;;;21.23;89.74;99384.81;10412347;28;20041;-71
2023/06/14 02:24:23;;;;;;;6.75;2.35;;;;;;;21.15;87.92;99313.22;10411592;28;20038;-70
2023/06/14 02:29:24;;;;;;;6.07;2.15;;;;;;;22.23;85.29;99382.03;10411580;28;20041;-71
2023/06/14 02:34:24;;;;;;;5.35;1.92;;;;;;;22.59;82.87;99325.22;10411227;28;20041;-70
2023/06/14 02:39:25;;;;;;;6.60;1.70;;;;;;;23.62;79.65;99397.06;10410622;28;20041;-71
2023/06/14 02:44:27;;;;;;;6.18;2.17;;;;;;;24.31;76.06;99381.78;10411249;28;20069;-71
2023/06/14 02:49:28;;;;;;;7.32;1.80;;;;;;;25.09;73.11;99380.06;10410120;28;20144;-71
2023/06/14 02:54:29;;;;;;;7.22;1.48;;;;;;;25.79;70.19;99395.91;10410786;28;20124;-71
2023/06/14 02:59:29;;;;;;;9.07;2.60;;;;;;;26.03;68.23;99386.91;10410322;28;20504;-71
2023/06/14 03:04:34;;;;;;;9.68;2.20;;;;;;;26.37;66.49;99371.13;10445506;27;20045;-71
2023/06/14 03:09:37;;;;;;;5.57;1.60;;;;;;;26.33;64.93;99355.72;10377782;28;20566;-71
2023/06/14 03:14:38;;;;;;;11.15;1.52;;;;;;;26.44;63.98;99350.88;10368935;28;20082;-71
2023/06/14 03:19:41;;;;;;;4.55;1.58;;;;;;;26.72;63.91;99422.66;10369393;28;20146;-70
2023/06/14 03:24:42;;;;;;;6.93;1.50;;;;;;;27.12;62.33;99428.50;10368445;28;20039;-71
2023/06/14 03:29:43;;;;;;;3.38;1.55;;;;;;;26.97;61.35;99356.81;10368655;28;20045;-71
2023/06/14 03:34:45;;;;;;;23.08;2.47;;;;;;;27.69;59.41;99356.22;10405542;28;20396;-71
2023/06/14 03:39:47;;;;;;;6.22;2.20;;;;;;;29.17;56.76;99442.16;10408177;28;20086;-71
2023/06/14 03:44:48;;;;;;;5.10;1.70;;;;;;;30.22;54.35;99416.75;10409152;28;20101;-71
2023/06/14 03:49:48;;;;;;;6.43;1.90;;;;;;;30.74;52.36;99437.84;10408382;28;20082;-72
2023/06/14 03:54:50;;;;;;;7.03;2.20;;;;;;;31.14;51.40;99432.16;10408218;28;20170;-72
2023/06/14 03:59:50;;;;;;;3.50;1.73;;;;;;;31.43;50.70;99433.38;10408690;28;20463;-72
2023/06/14 04:04:54;;;;;;;5.53;1.95;;;;;;;31.41;49.86;99438.38;10408643;28;20086;-72
2023/06/14 04:09:55;;;;;;;4.95;1.90;;;;;;;31.29;49.24;99437.13;10408426;28;20037;-71
2023/06/14 04:14:56;;;;;;;3.93;1.63;;;;;;;31.80;48.57;99449.03;10407933;28;20045;-70
2023/06/14 04:19:58;;;;;;;5.35;1.90;;;;;;;32.01;48.18;99445.53;10407290;28;20053;-71
2023/06/14 04:24:59;;;;;;;10.80;2.00;;;;;;;31.74;47.50;99433.88;10407465;28;20045;-71
2023/06/14 04:30:03;;;;;;;7.05;1.90;;;;;;;32.21;47.37;99444.75;10407799;28;20045;-71
2023/06/14 04:35:07;;;;;;;9.75;2.40;;;;;;;32.69;45.12;99443.41;10407097;28;20034;-71
2023/06/14 04:40:09;;;;;;;7.05;2.00;;;;;;;32.29;45.86;99386.16;10406414;28;20072;-70
2023/06/14 04:45:10;;;;;;;51.28;3.88;;;;;;;32.45;46.51;99444.09;10406479;28;20044;-72
2023/06/14 04:50:12;;;;;;;18.88;3.15;;;;;;;32.74;46.03;99450.66;10406401;28;20466;-71
2023/06/14 04:55:13;;;;;;;11.90;2.60;;;;;;;32.06;45.50;99387.66;10405735;28;20083;-71
2023/06/14 05:00:14;;;;;;;30.38;3.65;;;;;;;32.11;45.57;99461.63;10406335;28;20508;-71
2023/06/14 05:05:15;;;;;;;5.93;2.40;;;;;;;31.55;46.30;99420.56;10407031;28;20038;-72
2023/06/14 05:10:16;;;;;;;14.63;2.80;;;;;;;31.53;45.78;99416.53;10406264;28;20037;-70
2023/06/14 05:15:17;;;;;;;7.30;2.20;;;;;;;31.09;47.02;99452.34;10406294;28;20059;-70
2023/06/14 05:20:18;;;;;;;11.45;2.88;;;;;;;30.08;48.18;99398.84;10406643;28;20046;-70
2023/06/14 05:25:20;;;;;;;7.70;2.38;;;;;;;29.89;49.10;99419.09;10406578;28;20067;-71
2023/06/14 05:30:21;;;;;;;10.68;2.38;;;;;;;29.93;49.19;99406.38;10395151;28;20487;-73
2023/06/14 05:35:23;;;;;;;6.45;2.10;;;;;;;30.03;49.28;99474.56;10397620;28;20080;-73
2023/06/14 05:40:23;;;;;;;10.00;2.10;;;;;;;29.39;49.99;99383.03;10411375;28;20045;-71
2023/06/14 05:45:24;;;;;;;5.13;2.10;;;;;;;29.91;49.85;99481.75;10412281;28;20049;-71
2023/06/14 05:50:25;;;;;;;5.43;2.20;;;;;;;29.88;50.49;99487.84;10411074;28;20065;-72
2023/06/14 05:55:26;;;;;;;6.20;2.13;;;;;;;29.86;50.25;99476.44;10412933;28;20095;-71
2023/06/14 06:00:27;;;;;;;8.00;2.28;;;;;;;29.45;49.85;99398.97;10412617;28;20057;-71
2023/06/14 06:05:28;;;;;;;6.40;1.90;;;;;;;29.02;50.92;99410.53;10411822;28;20041;-72
2023/06/14 06:10:29;;;;;;;7.88;2.20;;;;;;;29.21;51.54;99442.31;10411591;28;20071;-72
2023/06/14 06:15:30;;;;;;;11.05;2.20;;;;;;;29.36;50.73;99430.97;10412598;28;20041;-71
2023/06/14 06:20:31;;;;;;;12.93;2.35;;;;;;;29.56;50.51;99424.16;10404213;28;20516;-72
2023/06/14 06:25:32;;;;;;;6.20;2.08;;;;;;;30.25;49.86;99464.63;10409909;28;20564;-73
2023/06/14 06:30:33;;;;;;;7.13;2.30;;;;;;;30.84;49.01;99470.47;10408608;28;20093;-69
2023/06/14 06:35:34;;;;;;;8.57;2.10;;;;;;;30.46;48.21;99388.88;10385958;28;20041;-70
2023/06/14 06:40:34;;;;;;;6.78;2.13;;;;;;;30.99;48.23;99458.16;10409283;28;20046;-69
2023/06/14 06:56:58;;;;;;;26.55;3.13;;;;;;;30.77;49.21;99456.41;10511161;28;20917;-66
2023/06/14 07:01:59;;;;;;;3.40;1.70;;;;;;;30.68;48.83;99453.66;10478682;28;20063;-65
2023/06/14 07:07:00;;;;;;;7.35;2.30;;;;;;;30.57;48.40;99391.28;10473867;28;20052;-67
2023/06/14 07:12:01;;;;;;;4.30;1.92;;;;;;;31.06;48.18;99471.41;10453610;28;20033;-66
2023/06/14 07:17:02;;;;;;;7.22;2.20;;;;;;;31.27;47.60;99452.31;10421432;28;20060;-66
2023/06/14 07:22:02;;;;;;;7.25;2.22;;;;;;;31.21;47.16;99402.28;10446574;28;20131;-68
2023/06/14 07:27:04;;;;;;;5.95;2.42;;;;;;;31.61;46.64;99459.63;10450628;28;20033;-65
2023/06/14 07:32:05;;;;;;;5.28;2.15;;;;;;;31.65;45.98;99473.47;10444987;28;20041;-67
2023/06/14 07:37:06;;;;;;;8.23;2.10;;;;;;;31.54;45.96;99470.31;10425134;28;20036;-67
2023/06/14 07:42:07;;;;;;;5.93;2.10;;;;;;;31.52;45.85;99458.84;10424659;28;20049;-66
2023/06/14 07:47:07;;;;;;;8.30;2.33;;;;;;;31.57;45.54;99447.69;10429991;28;20038;-68
2023/06/14 07:52:09;;;;;;;7.45;2.40;;;;;;;31.25;45.02;99422.44;10424280;28;20136;-68
2023/06/14 07:57:10;;;;;;;8.85;2.13;;;;;;;30.87;45.48;99411.41;10429604;28;20038;-69
2023/06/14 08:02:10;;;;;;;9.55;2.13;;;;;;;30.96;44.70;99417.66;10401707;28;20041;-69
2023/06/14 08:07:12;;;;;;;6.20;2.40;;;;;;;31.74;43.26;99420.16;10412624;28;20045;-69
2023/06/14 08:12:12;;;;;;;6.85;2.20;;;;;;;31.76;42.31;99373.94;10403861;28;20042;-69
2023/06/14 08:17:13;;;;;;;7.07;2.03;;;;;;;31.90;41.75;99356.44;10397010;28;20056;-68
2023/06/14 08:22:14;;;;;;;5.82;2.20;;;;;;;32.32;41.62;99414.13;10406014;28;20464;-69
2023/06/14 08:27:15;;;;;;;10.57;2.42;;;;;;;32.36;41.42;99406.81;10415336;28;20049;-69
2023/06/14 08:32:16;;;;;;;5.72;2.03;;;;;;;32.37;41.29;99397.41;10441238;28;20568;-70
2023/06/14 08:37:17;;;;;;;10.55;2.42;;;;;;;32.55;40.73;99398.91;10417888;28;20175;-70
2023/06/14 08:42:21;;;;;;;7.22;1.95;;;;;;;32.27;39.95;99349.97;10417299;28;20128;-68
2023/06/14 08:47:25;;;;;;;5.60;2.00;;;;;;;32.65;40.17;99403.19;10417107;28;20413;-68
2023/06/14 08:52:30;;;;;;;11.75;2.97;;;;;;;32.68;40.18;99381.31;10416953;28;20107;-70
2023/06/14 08:57:31;;;;;;;6.03;2.08;;;;;;;32.74;40.27;99373.66;10416853;28;20053;-69
2023/06/14 09:02:35;;;;;;;6.95;2.20;;;;;;;32.94;40.41;99400.28;10416949;28;20045;-70
2023/06/14 09:07:38;;;;;;;10.10;2.00;;;;;;;32.76;40.06;99335.63;10415381;28;20071;-69
2023/06/14 09:12:39;;;;;;;4.75;2.25;;;;;;;32.23;40.33;99291.34;10416796;28;20048;-70
2023/06/14 09:17:41;;;;;;;5.93;2.00;;;;;;;33.01;40.29;99397.00;10416134;28;20123;-69
2023/06/14 09:22:42;;;;;;;5.90;1.97;;;;;;;33.01;40.23;99388.75;10415845;28;20477;-70
2023/06/14 09:27:42;;;;;;;9.85;2.35;;;;;;;33.19;40.08;99390.16;10415601;28;20041;-70
2023/06/14 09:32:44;;;;;;;7.05;1.98;;;;;;;33.17;39.72;99381.41;10414743;28;20049;-70
2023/06/14 09:37:44;;;;;;;7.43;2.28;;;;;;;33.35;39.33;99387.50;10414809;28;20130;-68
2023/06/14 09:42:45;;;;;;;6.38;1.98;;;;;;;33.14;39.25;99384.84;10415041;28;20126;-69
2023/06/14 09:47:47;;;;;;;10.38;2.10;;;;;;;33.26;39.37;99375.81;10420495;28;20056;-69
2023/06/14 09:52:52;;;;;;;7.45;2.22;;;;;;;33.25;38.21;99365.97;10414526;28;20064;-70
2023/06/14 09:57:54;;;;;;;6.45;2.72;;;;;;;33.42;38.04;99375.94;10443776;28;20044;-69
2023/06/14 10:03:01;;;;;;;5.28;2.25;;;;;;;33.53;37.20;99371.59;10455428;28;20044;-69
2023/06/14 10:08:09;;;;;;;12.60;2.55;;;;;;;33.56;37.21;99375.59;10453809;28;20045;-69
2023/06/14 10:13:11;;;;;;;6.00;2.28;;;;;;;33.46;37.13;99376.06;10455491;28;20037;-71
2023/06/14 10:18:24;;;;;;;7.63;2.15;;;;;;;33.70;37.04;99358.75;10455625;28;20045;-70
2023/06/14 10:23:28;;;;;;;8.90;2.20;;;;;;;33.81;37.47;99326.81;10454307;28;20044;-70
2023/06/14 10:28:30;;;;;;;9.88;2.30;;;;;;;34.06;36.51;99360.63;10454740;28;20412;-70
2023/06/14 10:33:35;;;;;;;11.23;2.20;;;;;;;34.12;36.32;99352.94;10454219;28;20637;-72
2023/06/14 10:38:38;;;;;;;8.13;2.50;;;;;;;33.98;36.01;99347.75;10453964;28;20043;-69
2023/06/14 10:43:57;;;;;;;6.88;2.00;;;;;;;34.05;36.23;99348.81;10453849;28;20523;-70
2023/06/14 10:48:58;;;;;;;6.25;2.40;;;;;;;33.95;35.87;99312.63;10423596;28;20041;-70
2023/06/14 10:53:59;;;;;;;9.87;2.17;;;;;;;34.47;35.48;99345.66;10407037;28;20053;-71
2023/06/14 10:59:00;;;;;;;9.00;2.50;;;;;;;34.41;35.09;99304.91;10404210;28;20400;-70
2023/06/14 11:04:11;;;;;;;8.68;2.25;;;;;;;34.67;35.02;99359.59;10403502;28;20540;-69
2023/06/14 11:09:56;;;;;;;6.90;2.20;;;;;;;34.94;35.38;99352.41;10382065;28;20448;-71
2023/06/14 11:14:57;;;;;;;12.55;2.88;;;;;;;34.66;35.38;99344.19;10350778;28;20085;-72
2023/06/14 11:20:16;;;;;;;8.23;2.45;;;;;;;34.79;35.36;99356.75;10398297;28;20057;-69
2023/06/14 11:25:18;;;;;;;6.20;2.15;;;;;;;34.45;35.68;99345.19;10397085;28;20121;-70
2023/06/14 11:30:18;;;;;;;8.20;2.22;;;;;;;34.13;35.95;99340.75;10402444;28;20037;-71
2023/06/14 11:35:23;;;;;;;6.68;2.33;;;;;;;34.58;36.41;99359.75;10404213;28;20041;-72
2023/06/14 11:45:48;;;;;;;17.52;3.20;;;;;;;34.67;34.61;99341.09;10408396;28;20107;-69
2023/06/14 11:50:51;;;;;;;4.93;2.22;;;;;;;34.84;34.93;99356.50;10403051;28;20053;-72
2023/06/14 11:55:52;;;;;;;8.40;2.30;;;;;;;34.72;35.07;99327.03;10393323;28;20214;-70
2023/06/14 12:00:53;;;;;;;9.68;2.35;;;;;;;34.92;34.65;99357.50;10403744;28;20047;-70
2023/06/14 12:06:08;;;;;;;5.70;2.50;;;;;;;35.20;34.70;99362.94;10411946;28;20045;-71
2023/06/14 12:11:13;;;;;;;19.73;2.97;;;;;;;34.53;35.88;99360.78;10417945;28;20072;-70
2023/06/14 12:16:14;;;;;;;8.43;2.45;;;;;;;34.12;36.49;99361.19;10407781;28;20040;-72
2023/06/14 12:21:15;;;;;;;8.52;2.40;;;;;;;33.26;36.98;99289.69;10399709;28;20493;-73
2023/06/14 12:26:17;;;;;;;12.20;2.30;;;;;;;33.25;37.12;99357.69;10402605;28;20038;-69
2023/06/14 12:31:18;;;;;;;;;;;;;;;33.45;37.34;99358.75;10397719;28;20033;-70
2023/06/14 12:41:41;;;;;;;7.13;1.95;;;;;;;32.64;38.51;99310.84;10411478;28;20516;-71
2023/06/14 12:46:43;;;;;;;14.15;2.58;;;;;;;32.99;38.91;99368.22;10395055;28;20045;-69
2023/06/14 12:51:44;;;;;;;15.23;2.42;;;;;;;33.00;38.99;99361.56;10400914;28;20077;-72
2023/06/14 12:56:45;;;;;;;12.48;2.30;;;;;;;32.65;39.21;99287.69;10416159;28;20144;-69
2023/06/14 13:01:47;;;;;;;20.27;2.75;;;;;;;32.57;39.94;99283.09;10398482;28;20044;-71
2023/06/14 13:12:08;;;;;;;5.88;2.33;;;;;;;32.56;39.13;99307.03;10407635;28;20291;-72
2023/06/14 13:17:10;;;;;;;11.98;2.85;;;;;;;32.44;39.23;99318.81;10413865;28;20076;-70
2023/06/14 13:22:10;;;;;;;8.60;2.47;;;;;;;32.16;39.54;99285.59;10432798;28;20033;-69
2023/06/14 13:27:14;;;;;;;9.40;2.40;;;;;;;32.77;39.75;99364.72;10429090;28;20052;-72
2023/06/14 13:32:14;;;;;;;8.35;2.30;;;;;;;32.44;39.51;99320.72;10414536;28;20136;-71
2023/06/14 13:37:16;;;;;;;6.80;2.15;;;;;;;32.47;39.62;99336.56;10430800;28;20120;-69
2023/06/14 13:42:16;;;;;;;6.25;2.10;;;;;;;32.33;39.95;99336.81;10453027;28;20106;-70
2023/06/14 13:47:17;;;;;;;7.38;2.55;;;;;;;32.36;39.70;99358.13;10424362;28;20091;-69
2023/06/14 13:52:18;;;;;;;8.02;2.28;;;;;;;32.24;39.79;99364.38;10413754;28;20390;-68
2023/06/14 14:07:58;;;;;;;17.83;5.05;;;;;;;31.36;40.29;99283.75;10413689;28;20041;-69
2023/06/14 14:13:17;;;;;;;46.80;25.98;;;;;;;31.86;41.39;99389.22;10413959;28;20037;-68
2023/06/14 14:18:20;;;;;;;11.90;6.82;;;;;;;31.85;40.77;99395.84;10412527;28;20134;-69
2023/06/14 14:23:21;;;;;;;8.15;2.83;;;;;;;31.64;41.32;99398.56;10413071;28;20408;-68
2023/06/14 14:28:22;;;;;;;11.05;3.17;;;;;;;31.31;42.50;99384.66;10413617;28;20135;-70
2023/06/14 14:33:23;;;;;;;6.65;2.42;;;;;;;31.20;42.71;99400.66;10411923;28;20124;-70
2023/06/14 14:38:24;;;;;;;7.32;2.40;;;;;;;30.96;43.79;99378.47;10412535;28;20038;-69
2023/06/14 14:43:33;;;;;;;5.82;2.17;;;;;;;30.78;44.33;99405.94;10412580;28;20127;-69
2023/06/14 14:48:34;;;;;;;7.38;2.20;;;;;;;30.10;44.60;99330.84;10411869;28;20596;-69
2023/06/14 14:58:54;;;;;;;11.13;2.50;;;;;;;29.77;45.77;99345.00;10412726;28;20382;-69
2023/06/14 15:03:55;;;;;;;12.98;2.42;;;;;;;29.89;46.65;99401.88;10413764;28;20049;-69
2023/06/14 15:08:56;;;;;;;5.20;2.15;;;;;;;29.76;47.75;99420.03;10421644;28;20099;-71
2023/06/14 15:13:57;;;;;;;7.47;2.78;;;;;;;29.28;48.05;99369.63;10419509;28;20041;-70
2023/06/14 15:24:17;;;;;;;7.75;2.70;;;;;;;29.43;49.73;99441.47;10421022;28;20056;-70
2023/06/14 15:29:17;;;;;;;9.75;3.03;;;;;;;28.75;51.18;99369.66;10419647;28;20043;-70
2023/06/14 15:34:18;;;;;;;9.85;2.88;;;;;;;29.08;52.29;99450.31;10418942;28;20041;-71
2023/06/14 15:39:19;;;;;;;16.70;4.28;;;;;;;28.44;52.92;99384.09;10420621;28;20045;-70
2023/06/14 15:44:20;;;;;;;18.10;3.30;;;;;;;28.03;51.90;99365.91;10419635;28;20096;-70
2023/06/14 15:49:21;;;;;;;17.80;3.00;;;;;;;28.40;51.90;99446.69;10420051;28;20080;-72
2023/06/14 15:54:21;;;;;;;14.80;4.97;;;;;;;27.68;52.37;99386.56;10419404;28;20608;-72
2023/06/14 15:59:23;;;;;;;14.15;4.65;;;;;;;27.92;53.07;99466.31;10417108;28;20497;-72
2023/06/14 16:04:24;;;;;;;13.50;3.33;;;;;;;27.83;53.90;99475.53;10418963;28;20037;-72
2023/06/14 16:09:25;;;;;;;8.80;3.03;;;;;;;27.33;56.41;99483.53;10418228;28;20536;-70
2023/06/14 16:14:26;;;;;;;7.55;2.35;;;;;;;26.54;58.82;99492.41;10417938;28;20053;-69
2023/06/14 16:19:27;;;;;;;9.63;2.38;;;;;;;25.47;59.29;99415.59;10418609;28;20044;-73
2023/06/14 16:24:27;;;;;;;17.92;6.53;;;;;;;25.36;58.50;99469.25;10418812;28;20041;-72
2023/06/14 16:29:28;;;;;;;9.40;3.10;;;;;;;24.79;58.77;99457.22;10416147;28;20045;-72
2023/06/14 16:34:32;;;;;;;5.45;2.20;;;;;;;24.77;58.97;99464.88;10425370;28;20100;-73
2023/06/14 16:39:33;;;;;;;5.30;1.70;;;;;;;24.80;57.14;99437.16;10414799;28;20083;-75
2023/06/14 16:44:34;;;;;;;10.02;2.50;;;;;;;25.00;55.90;99426.06;10412726;28;20557;-73
2023/06/14 16:49:35;;;;;;;4.35;1.15;;;;;;;24.70;55.67;99350.31;10419131;28;20071;-68
2023/06/14 16:54:36;;;;;;;7.55;2.35;;;;;;;24.89;55.91;99393.84;10418667;28;20063;-73
2023/06/14 16:59:37;;;;;;;6.03;1.42;;;;;;;24.98;56.13;99413.91;10396397;28;20038;-71
2023/06/14 17:04:38;;;;;;;4.85;2.28;;;;;;;24.06;56.28;99282.41;10405158;28;20477;-72
2023/06/14 17:14:58;;;;;;;4.35;1.98;;;;;;;24.98;56.93;99462.81;10416547;28;20041;-73
2023/06/14 17:19:59;;;;;;;9.80;5.22;;;;;;;24.94;57.38;99454.38;10394843;28;20052;-74
2023/06/14 17:24:59;;;;;;;14.75;4.22;;;;;;;25.06;57.84;99484.72;10419508;28;20045;-73
2023/06/14 17:30:00;;;;;;;6.97;4.07;;;;;;;25.09;58.57;99526.81;10443492;28;20128;-73
2023/06/14 17:40:20;;;;;;;11.38;3.88;;;;;;;24.87;58.49;99512.88;10457374;28;20047;-70
2023/06/14 17:45:21;;;;;;;8.77;2.25;;;;;;;24.22;58.43;99424.19;10442661;28;20047;-69
2023/06/14 17:50:22;;;;;;;18.80;2.50;;;;;;;24.60;59.26;99471.50;10455440;28;20468;-69
2023/06/14 17:55:23;;;;;;;5.05;1.77;;;;;;;25.16;60.77;99545.53;10454736;28;20052;-69
2023/06/14 18:00:42;;;;;;;6.57;2.20;;;;;;;25.25;63.94;99557.47;10455410;28;20040;-69
2023/06/14 18:05:44;;;;;;;10.65;2.60;;;;;;;25.22;63.60;99558.81;10454057;28;20124;-68
2023/06/14 18:10:44;;;;;;;5.97;2.42;;;;;;;24.95;64.29;99504.94;10455443;28;20041;-69
2023/06/14 18:15:45;;;;;;;8.73;2.60;;;;;;;24.87;64.81;99485.72;10449058;28;20132;-68
2023/06/14 18:20:46;;;;;;;10.52;2.63;;;;;;;25.38;65.46;99570.38;10446807;28;20412;-68
2023/06/14 18:26:05;;;;;;;10.38;3.03;;;;;;;25.43;65.55;99578.50;10454660;28;20040;-69
2023/06/14 18:31:06;;;;;;;11.02;2.97;;;;;;;25.40;65.76;99570.91;10451634;28;20079;-69
2023/06/14 18:36:07;;;;;;;11.52;3.05;;;;;;;25.51;66.23;99588.75;10440993;28;20110;-68
2023/06/14 18:41:08;;;;;;;9.98;2.53;;;;;;;25.16;66.05;99527.34;10431408;28;20111;-68
2023/06/14 18:51:33;;;;;;;8.87;3.03;;;;;;;25.44;66.47;99577.41;10449878;28;20041;-69
2023/06/14 18:56:34;;;;;;;9.15;2.65;;;;;;;25.38;67.33;99566.84;10442534;28;20206;-69
2023/06/14 19:01:35;;;;;;;8.30;2.65;;;;;;;25.14;67.91;99531.44;10454941;28;20076;-69
2023/06/14 19:17:33;;;;;;;6.15;2.75;;;;;;;25.17;69.23;99558.06;10429652;28;20520;-69
2023/06/14 19:22:35;;;;;;;9.45;2.60;;;;;;;25.20;69.43;99566.44;10412639;28;20041;-69
2023/06/14 19:27:36;;;;;;;7.30;2.40;;;;;;;25.18;69.74;99565.91;10412810;28;20037;-69
2023/06/14 19:32:37;;;;;;;7.65;2.55;;;;;;;24.68;70.55;99482.84;10411485;28;20081;-69
2023/06/14 19:37:38;;;;;;;7.30;2.50;;;;;;;25.15;71.27;99549.38;10412389;28;20053;-69
2023/06/14 19:42:40;;;;;;;6.75;2.55;;;;;;;24.28;71.23;99419.53;10412662;28;20485;-69
2023/06/14 19:47:41;;;;;;;6.70;2.90;;;;;;;25.08;71.77;99543.41;10411682;28;20400;-69
2023/06/14 19:52:42;;;;;;;8.38;3.47;;;;;;;24.96;72.38;99539.16;10415998;28;20093;-68
2023/06/14 19:57:42;;;;;;;6.32;2.45;;;;;;;24.33;73.01;99460.25;10418802;28;20072;-69
2023/06/14 20:02:43;;;;;;;6.30;2.58;;;;;;;24.80;73.38;99521.34;10418713;28;20389;-69
2023/06/14 20:07:44;;;;;;;7.00;2.85;;;;;;;24.81;73.45;99545.50;10419129;28;20037;-68
2023/06/14 20:12:45;;;;;;;7.82;2.45;;;;;;;24.63;73.04;99529.88;10418030;28;20413;-68
2023/06/14 20:17:46;;;;;;;9.07;2.75;;;;;;;24.56;73.28;99527.47;10418516;28;20048;-69
2023/06/14 20:22:47;;;;;;;7.43;2.63;;;;;;;24.68;72.81;99540.69;10417829;28;20048;-68
2023/06/14 20:28:06;;;;;;;7.97;2.50;;;;;;;24.72;73.51;99535.50;10417739;28;20038;-68
2023/06/14 20:33:26;;;;;;;7.22;2.72;;;;;;;24.58;72.45;99527.97;10417563;28;20568;-68
2023/06/14 20:38:27;;;;;;;10.02;2.80;;;;;;;24.66;72.51;99529.28;10417171;28;20049;-69
2023/06/14 20:43:28;;;;;;;7.78;2.60;;;;;;;24.73;71.66;99534.41;10433167;28;20102;-69
2023/06/14 20:48:29;;;;;;;7.05;2.60;;;;;;;24.72;71.80;99530.88;10433059;28;20095;-69
2023/06/14 20:53:30;;;;;;;7.70;2.78;;;;;;;24.19;71.72;99456.50;10416878;28;20057;-69
2023/06/14 20:58:31;;;;;;;12.10;2.35;;;;;;;24.24;71.55;99462.72;10416473;28;20501;-69
2023/06/14 21:03:31;;;;;;;9.85;2.75;;;;;;;24.73;72.00;99532.50;10444793;28;20037;-69
2023/06/14 21:08:32;;;;;;;9.25;2.75;;;;;;;24.60;71.81;99509.50;10457191;28;20041;-69
2023/06/14 21:13:33;;;;;;;11.50;3.10;;;;;;;24.25;71.96;99436.38;10457574;28;20072;-69
2023/06/14 21:18:34;;;;;;;7.95;2.50;;;;;;;24.71;72.04;99504.84;10457813;28;20036;-69
2023/06/14 21:23:34;;;;;;;8.23;2.92;;;;;;;24.66;71.72;99504.06;10456748;28;20045;-69
2023/06/14 21:28:35;;;;;;;5.95;2.65;;;;;;;24.50;71.92;99487.03;10456853;28;20064;-69
2023/06/14 21:33:36;;;;;;;6.22;2.70;;;;;;;24.62;71.55;99513.84;10456133;28;20079;-69
2023/06/14 21:38:37;;;;;;;5.75;2.47;;;;;;;24.66;71.76;99539.34;10456699;28;20099;-69
2023/06/14 21:43:37;;;;;;;8.93;3.00;;;;;;;24.04;72.10;99457.41;10455787;28;20033;-69
2023/06/14 21:48:38;;;;;;;10.45;2.85;;;;;;;24.56;72.17;99545.63;10456837;28;20045;-69
2023/06/14 21:53:39;;;;;;;8.45;2.95;;;;;;;24.44;72.87;99548.72;10455918;28;20056;-69
2023/06/14 21:58:40;;;;;;;8.57;2.92;;;;;;;24.37;73.46;99559.00;10455607;28;20623;-69
2023/06/14 22:03:41;;;;;;;9.82;3.20;;;;;;;24.20;74.21;99558.53;10455829;28;20040;-69
2023/06/14 22:08:42;;;;;;;7.10;3.05;;;;;;;24.21;74.88;99568.31;10456951;28;20045;-68
2023/06/14 22:13:43;;;;;;;7.32;2.95;;;;;;;23.72;75.42;99498.47;10454757;28;20053;-69
2023/06/14 22:18:45;;;;;;;11.60;3.33;;;;;;;23.52;75.71;99500.13;10455064;28;20496;-69
2023/06/14 22:23:46;;;;;;;7.07;2.60;;;;;;;23.71;76.46;99534.81;10454602;28;20052;-68
2023/06/14 22:28:48;;;;;;;7.40;2.58;;;;;;;23.97;77.30;99592.53;10454426;28;20044;-68
2023/06/14 22:33:51;;;;;;;4.70;2.63;;;;;;;23.65;76.82;99545.63;10454597;28;20037;-69
2023/06/14 22:38:51;;;;;;;8.77;2.97;;;;;;;24.00;78.15;99628.06;10454452;28;20029;-69
2023/06/14 22:43:52;;;;;;;8.40;3.22;;;;;;;24.02;78.45;99633.19;10454980;28;20451;-69
2023/06/14 22:48:53;;;;;;;8.38;3.08;;;;;;;24.04;78.50;99620.19;10453284;28;20477;-69
2023/06/14 22:53:54;;;;;;;9.85;2.97;;;;;;;24.10;78.04;99630.75;10454973;28;20056;-69
2023/06/14 22:58:57;;;;;;;6.57;2.70;;;;;;;24.22;78.18;99651.34;10454130;28;20041;-69
2023/06/14 23:03:57;;;;;;;5.50;2.78;;;;;;;24.18;78.20;99655.69;10454241;28;20098;-69
2023/06/14 23:08:59;;;;;;;8.18;2.63;;;;;;;24.12;79.00;99650.28;10454461;28;20048;-69
2023/06/14 23:14:00;;;;;;;8.68;3.10;;;;;;;23.61;79.16;99579.81;10454764;28;20052;-69
2023/06/14 23:19:01;;;;;;;8.75;2.58;;;;;;;23.55;79.85;99604.50;10453776;28;20043;-69
2023/06/14 23:24:02;;;;;;;6.35;2.67;;;;;;;23.67;80.50;99630.22;10453736;28;20045;-69
2023/06/14 23:29:04;;;;;;;7.60;2.90;;;;;;;23.15;80.56;99549.19;10461800;28;20500;-69
2023/06/14 23:34:05;;;;;;;12.07;3.42;;;;;;;23.14;81.06;99559.19;10461028;28;20045;-69
2023/06/14 23:39:06;;;;;;;11.55;3.35;;;;;;;23.38;81.86;99612.88;10461787;28;20044;-69
2023/06/14 23:44:07;;;;;;;7.35;3.30;;;;;;;23.40;82.88;99627.78;10460959;28;20503;-69
2023/06/14 23:49:08;;;;;;;8.95;3.28;;;;;;;22.55;85.21;99491.94;10460396;28;20507;-69
2023/06/14 23:54:11;;;;;;;18.67;4.78;;;;;;;22.94;88.01;99569.97;10460710;28;20064;-69
2023/06/14 23:59:12;;;;;;;;;;;;;;;23.42;90.03;99639.19;10461460;28;20055;-69
